Time;durP1;ratioP1;P1;durP2;ratioP2;P2;SDS_P1;SDS_P2;PMS_P1;PMS_P2;Temp;Humidity;BMP_temperature;BMP_pressure;BME280_temperature;BME280_humidity;BME280_pressure;Samples;Min_cycle;Max_cycle;Signal;HPM_P1;HPM_P2
2021/05/09 00:07:57;;;;;;;3.80;1.77;;;11.20;99.90;;;;;;20906003;28;20064;-76
2021/05/09 00:17:58;;;;;;;3.13;1.63;;;11.10;99.90;;;;;;20906907;28;20407;-76
2021/05/09 00:27:59;;;;;;;2.72;1.48;;;11.10;99.90;;;;;;20908934;28;20111;-76
2021/05/09 00:38:00;;;;;;;3.10;1.63;;;10.90;99.90;;;;;;20904556;28;20074;-76
2021/05/09 00:48:01;;;;;;;3.83;1.58;;;10.70;99.90;;;;;;20921327;28;20057;-76
2021/05/09 00:58:02;;;;;;;4.57;1.63;;;10.60;99.90;;;;;;20920741;28;20112;-76
2021/05/09 01:08:04;;;;;;;3.87;1.70;;;10.60;99.90;;;;;;20920053;28;20036;-76
2021/05/09 01:18:05;;;;;;;7.95;2.08;;;10.20;99.90;;;;;;20917843;28;20258;-76
2021/05/09 01:28:06;;;;;;;2.87;1.73;;;10.40;99.90;;;;;;20918867;28;20064;-76
2021/05/09 01:38:07;;;;;;;1.90;1.27;;;10.30;99.90;;;;;;20899829;28;20059;-76
2021/05/09 01:48:08;;;;;;;2.17;1.50;;;10.20;99.90;;;;;;20916309;28;20033;-75
2021/05/09 01:58:09;;;;;;;2.87;1.90;;;10.10;99.90;;;;;;20916197;28;20024;-76
2021/05/09 02:08:28;;;;;;;3.35;2.10;;;9.70;99.90;;;;;;20914360;28;20036;-75
2021/05/09 02:18:35;;;;;;;2.78;1.98;;;9.50;99.90;;;;;;20913107;28;20025;-76
2021/05/09 02:28:36;;;;;;;2.60;1.97;;;9.70;99.90;;;;;;20912509;28;20029;-76
2021/05/09 02:38:37;;;;;;;3.93;2.10;;;9.60;99.90;;;;;;20912869;28;20025;-76
2021/05/09 02:48:38;;;;;;;2.83;2.07;;;9.80;99.90;;;;;;20910955;28;20412;-76
2021/05/09 02:58:39;;;;;;;7.20;2.37;;;9.60;99.90;;;;;;20910102;28;20091;-76
2021/05/09 03:08:40;;;;;;;7.23;2.60;;;9.20;99.90;;;;;;20909390;28;20411;-76
2021/05/09 03:18:41;;;;;;;2.43;1.70;;;9.20;99.90;;;;;;20908370;28;20032;-76
2021/05/09 03:28:42;;;;;;;4.00;1.53;;;9.10;99.90;;;;;;20910793;28;20139;-76
2021/05/09 03:38:43;;;;;;;4.27;1.90;;;9.10;99.90;;;;;;20909507;28;20054;-77
2021/05/09 03:48:44;;;;;;;3.10;2.00;;;9.00;99.90;;;;;;20907399;28;20094;-74
2021/05/09 03:58:45;;;;;;;3.10;1.90;;;8.90;99.90;;;;;;20907727;28;20547;-77
2021/05/09 04:08:46;;;;;;;4.80;2.83;;;8.80;99.90;;;;;;20928451;28;20068;-77
2021/05/09 04:18:47;;;;;;;3.47;2.17;;;8.60;99.90;;;;;;20935595;28;20033;-77
2021/05/09 04:28:48;;;;;;;4.23;2.20;;;8.60;99.90;;;;;;20938471;28;20488;-77
2021/05/09 04:38:50;;;;;;;3.38;1.90;;;8.50;99.90;;;;;;20937079;28;20041;-77
2021/05/09 04:48:50;;;;;;;3.40;1.83;;;8.70;99.90;;;;;;20936730;28;20029;-77
2021/05/09 04:58:51;;;;;;;10.30;2.70;;;9.00;99.90;;;;;;20937451;28;20035;-77
2021/05/09 05:08:52;;;;;;;4.47;2.77;;;9.10;99.90;;;;;;20949220;28;20033;-76
2021/05/09 05:18:53;;;;;;;3.83;2.13;;;9.10;99.90;;;;;;20923556;28;20526;-76
2021/05/09 05:28:54;;;;;;;3.23;2.27;;;9.50;99.90;;;;;;20921081;28;20028;-76
2021/05/09 05:38:55;;;;;;;5.63;2.27;;;9.70;99.90;;;;;;20918084;28;20025;-73
2021/05/09 05:48:56;;;;;;;4.33;2.17;;;10.10;99.90;;;;;;20917307;28;20108;-74
2021/05/09 05:58:57;;;;;;;2.90;2.07;;;10.60;99.90;;;;;;20916645;28;20053;-77
2021/05/09 06:08:58;;;;;;;3.50;1.77;;;10.80;99.90;;;;;;20921498;28;20792;-75
2021/05/09 06:18:59;;;;;;;5.37;2.37;;;11.40;99.90;;;;;;20921742;28;20029;-76
2021/05/09 06:29:00;;;;;;;2.50;1.63;;;12.20;99.90;;;;;;20914364;28;20119;-76
2021/05/09 06:39:02;;;;;;;3.17;1.75;;;13.10;99.90;;;;;;20912639;28;20021;-76
2021/05/09 06:49:03;;;;;;;4.18;1.75;;;13.60;99.90;;;;;;20915201;28;20036;-78
2021/05/09 06:59:04;;;;;;;3.15;1.80;;;14.10;99.90;;;;;;20923263;28;20063;-77
2021/05/09 07:09:09;;;;;;;8.15;1.58;;;14.60;99.90;;;;;;20934778;28;20124;-76
2021/05/09 07:19:10;;;;;;;2.40;1.77;;;14.80;99.90;;;;;;20909664;28;20040;-77
2021/05/09 07:29:11;;;;;;;1.60;1.50;;;15.10;99.90;;;;;;20909422;28;20041;-76
2021/05/09 07:39:12;;;;;;;2.97;1.65;;;15.00;99.90;;;;;;20890597;28;20665;-76
2021/05/09 07:49:12;;;;;;;3.85;1.52;;;16.10;99.90;;;;;;20908581;28;20029;-76
2021/05/09 07:59:13;;;;;;;2.13;1.27;;;16.30;99.90;;;;;;20906346;28;20045;-76
2021/05/09 08:09:15;;;;;;;3.23;1.00;;;16.90;99.90;;;;;;20907175;28;20423;-77
2021/05/09 08:19:16;;;;;;;2.20;1.30;;;17.60;99.90;;;;;;20907543;28;20036;-77
2021/05/09 08:29:17;;;;;;;3.50;1.37;;;17.30;99.90;;;;;;20891538;28;20084;-76
2021/05/09 08:39:17;;;;;;;5.83;1.30;;;16.90;99.90;;;;;;20891376;28;20099;-77
2021/05/09 08:49:19;;;;;;;2.10;1.10;;;19.00;99.90;;;;;;20889838;28;20587;-77
2021/05/09 08:59:20;;;;;;;1.10;0.90;;;21.10;99.90;;;;;;20906616;28;20151;-77
2021/05/09 09:09:25;;;;;;;2.60;0.90;;;21.80;99.90;;;;;;20886146;28;20037;-77
2021/05/09 09:19:26;;;;;;;2.75;0.95;;;21.50;99.90;;;;;;20904010;28;20740;-79
2021/05/09 09:29:38;;;;;;;2.90;1.73;;;21.90;99.90;;;;;;20909515;28;20056;-78
2021/05/09 09:39:53;;;;;;;1.92;1.00;;;22.20;99.90;;;;;;20911621;28;20521;-79
2021/05/09 09:49:54;;;;;;;12.15;2.10;;;22.70;99.90;;;;;;20911128;28;20040;-80
2021/05/09 10:00:09;;;;;;;5.67;4.23;;;22.60;99.90;;;;;;20909480;28;20044;-80
2021/05/09 10:10:11;;;;;;;156.30;109.70;;;23.00;99.90;;;;;;20907925;28;20040;-77
2021/05/09 10:20:12;;;;;;;8.27;3.85;;;24.20;99.90;;;;;;20906372;28;20045;-80
2021/05/09 10:30:13;;;;;;;3.88;2.60;;;25.50;98.80;;;;;;20895431;28;20447;-79
2021/05/09 10:40:22;;;;;;;;;;;26.10;93.20;;;;;;20906266;28;20183;-79
2021/05/09 10:50:27;;;;;;;2.88;1.17;;;26.50;95.80;;;;;;20913396;28;19912;-79
2021/05/09 11:00:28;;;;;;;49.90;30.13;;;27.00;91.50;;;;;;20912866;28;20414;-79
2021/05/09 11:10:28;;;;;;;;;;;25.50;91.40;;;;;;20906028;28;20036;-79
2021/05/09 11:20:29;;;;;;;6.43;2.53;;;25.90;91.60;;;;;;20907899;28;20378;-79
2021/05/09 11:30:34;;;;;;;;;;;27.10;87.30;;;;;;20900805;28;20491;-80
2021/05/09 11:40:35;;;;;;;8.35;5.15;;;28.10;86.20;;;;;;20904867;28;19916;-80
2021/05/09 11:50:37;;;;;;;0.77;0.63;;;28.50;83.00;;;;;;20902955;28;20032;-80
2021/05/09 12:00:42;;;;;;;1.15;0.52;;;29.20;76.90;;;;;;20890500;28;20032;-80
2021/05/09 12:10:43;;;;;;;1.42;0.80;;;28.90;73.50;;;;;;20822685;28;20160;-79
2021/05/09 12:20:46;;;;;;;1.50;0.68;;;28.50;82.90;;;;;;20869329;28;20062;-81
2021/05/09 12:30:50;;;;;;;1.58;0.80;;;29.30;72.50;;;;;;20927614;28;20037;-80
2021/05/09 12:41:04;;;;;;;0.60;0.50;;;29.70;75.10;;;;;;20943469;28;20025;-79
2021/05/09 12:51:06;;;;;;;0.82;0.50;;;30.10;70.00;;;;;;20924672;28;20043;-80
2021/05/09 13:01:20;;;;;;;2.15;0.50;;;30.80;66.80;;;;;;20922243;28;20040;-80
2021/05/09 13:11:24;;;;;;;1.23;0.63;;;30.40;64.40;;;;;;20917936;28;20076;-81
2021/05/09 13:21:24;;;;;;;1.88;0.63;;;30.10;73.00;;;;;;20911068;28;20075;-78
2021/05/09 13:31:25;;;;;;;4.57;0.60;;;30.80;64.90;;;;;;20898047;28;20119;-78
2021/05/09 13:41:26;;;;;;;3.20;1.20;;;30.10;69.40;;;;;;20897734;28;20033;-79
2021/05/09 13:51:28;;;;;;;3.22;0.68;;;28.90;70.30;;;;;;20897902;28;20571;-78
2021/05/09 14:01:29;;;;;;;1.05;0.60;;;28.80;75.40;;;;;;20900175;28;20028;-80
2021/05/09 14:11:30;;;;;;;0.88;0.50;;;29.90;71.80;;;;;;20900386;28;20036;-78
2021/05/09 14:21:31;;;;;;;0.68;0.40;;;30.90;70.50;;;;;;20895252;28;20025;-77
2021/05/09 14:31:32;;;;;;;1.05;0.70;;;30.40;67.60;;;;;;20903512;28;20821;-77
2021/05/09 14:41:33;;;;;;;0.98;0.60;;;29.10;72.60;;;;;;20892863;28;20029;-78
2021/05/09 14:51:34;;;;;;;0.40;0.40;;;29.50;71.90;;;;;;20892484;28;20037;-77
2021/05/09 15:01:35;;;;;;;2.15;1.00;;;29.50;67.00;;;;;;20890801;28;20471;-78
2021/05/09 15:11:36;;;;;;;2.38;0.70;;;29.90;67.90;;;;;;20871845;28;20116;-77
2021/05/09 15:21:37;;;;;;;2.15;0.95;;;29.00;66.30;;;;;;20904445;22;20041;-76
2021/05/09 15:31:38;;;;;;;1.23;0.80;;;28.50;67.40;;;;;;20889186;28;20059;-76
2021/05/09 15:41:39;;;;;;;0.73;0.70;;;28.60;66.30;;;;;;20889349;28;20033;-76
2021/05/09 15:51:39;;;;;;;;;;;28.00;66.50;;;;;;20888617;28;20052;-76
2021/05/09 16:01:40;;;;;;;1.92;0.70;;;27.40;70.70;;;;;;20901399;28;20402;-76
2021/05/09 16:11:41;;;;;;;2.65;1.02;;;27.00;73.60;;;;;;20885907;28;20040;-76
2021/05/09 16:21:48;;;;;;;;;;;26.90;74.00;;;;;;20887912;28;20029;-76
2021/05/09 16:31:49;;;;;;;3.30;1.23;;;26.60;75.70;;;;;;20917172;28;20682;-76
2021/05/09 16:41:50;;;;;;;1.77;1.13;;;26.50;71.10;;;;;;20969591;28;20033;-76
2021/05/09 16:51:53;;;;;;;3.40;1.67;;;26.50;73.40;;;;;;20969667;28;20325;-76
2021/05/09 17:01:53;;;;;;;5.35;2.88;;;26.20;73.20;;;;;;20904533;28;20040;-76
2021/05/09 17:12:00;;;;;;;5.40;3.10;;;25.90;73.80;;;;;;20888662;28;20036;-76
2021/05/09 17:22:01;;;;;;;0.95;0.70;;;25.70;74.30;;;;;;20899293;28;20119;-76
2021/05/09 17:32:02;;;;;;;2.42;1.50;;;25.40;72.40;;;;;;20898775;28;20107;-76
2021/05/09 17:42:03;;;;;;;;;;;25.20;73.20;;;;;;20898907;28;20033;-75
2021/05/09 17:52:04;;;;;;;2.22;1.15;;;24.60;78.60;;;;;;20896086;28;19919;-76
2021/05/09 18:02:05;;;;;;;1.77;1.23;;;24.60;80.50;;;;;;20894245;28;20036;-76
2021/05/09 18:12:06;;;;;;;1.53;0.83;;;24.50;75.90;;;;;;20974071;28;20294;-75
2021/05/09 18:32:27;;;;;;;6.63;1.15;;;23.00;90.60;;;;;;20889898;28;20105;-75
2021/05/09 18:42:27;;;;;;;1.87;1.13;;;21.40;93.60;;;;;;20892301;28;20041;-75
2021/05/09 18:52:29;;;;;;;1.50;1.00;;;20.60;93.90;;;;;;20892575;28;20574;-77
2021/05/09 19:02:30;;;;;;;2.03;1.33;;;20.30;94.80;;;;;;20873791;28;20526;-78
2021/05/09 19:12:30;;;;;;;2.33;1.27;;;20.20;95.40;;;;;;20971260;28;20040;-76
2021/05/09 19:22:31;;;;;;;2.23;1.10;;;20.80;93.40;;;;;;20900810;28;20593;-75
2021/05/09 19:32:32;;;;;;;2.57;1.00;;;20.40;94.70;;;;;;20888427;28;20036;-75
2021/05/09 19:42:33;;;;;;;1.97;1.10;;;20.60;90.60;;;;;;20887250;28;20107;-76
2021/05/09 19:52:34;;;;;;;20.37;2.43;;;20.10;93.10;;;;;;20887540;28;20043;-77
2021/05/09 20:02:35;;;;;;;1.63;1.03;;;18.80;97.00;;;;;;20886176;28;20075;-77
2021/05/09 20:12:36;;;;;;;2.03;1.00;;;18.60;98.60;;;;;;20888344;28;20032;-74
2021/05/09 20:22:38;;;;;;;1.93;0.97;;;18.00;99.90;;;;;;20885873;28;20033;-75
2021/05/09 20:32:38;;;;;;;2.50;1.13;;;18.40;99.70;;;;;;20884772;28;20112;-77
2021/05/09 20:42:39;;;;;;;1.33;0.90;;;18.80;98.60;;;;;;20897120;28;20112;-75
2021/05/09 20:52:44;;;;;;;1.80;1.10;;;18.20;99.90;;;;;;20912583;28;20029;-74
2021/05/09 21:02:45;;;;;;;1.35;1.08;;;18.40;99.90;;;;;;20919490;28;20029;-77
2021/05/09 21:12:46;;;;;;;4.97;1.25;;;17.40;99.90;;;;;;20917450;28;20036;-77
2021/05/09 21:22:46;;;;;;;6.00;1.33;;;17.30;99.90;;;;;;20914868;22;20045;-76
2021/05/09 21:32:48;;;;;;;3.90;1.40;;;17.20;99.90;;;;;;20833494;28;20037;-76
2021/05/09 21:42:48;;;;;;;7.37;1.67;;;16.80;99.90;;;;;;20810414;28;20032;-76
2021/05/09 21:52:49;;;;;;;5.28;1.73;;;16.60;99.90;;;;;;20812074;28;20021;-77
2021/05/09 22:02:50;;;;;;;1.67;1.23;;;16.50;99.90;;;;;;20835682;28;20045;-77
2021/05/09 22:12:51;;;;;;;2.38;1.33;;;17.30;99.90;;;;;;20835453;28;20088;-76
2021/05/09 22:22:52;;;;;;;4.38;1.48;;;16.80;99.90;;;;;;20832039;28;20057;-77
2021/05/09 22:32:53;;;;;;;1.80;1.50;;;17.00;99.90;;;;;;20831449;28;20026;-76
2021/05/09 22:42:54;;;;;;;3.28;1.45;;;17.00;99.90;;;;;;20830772;28;20506;-76
2021/05/09 22:52:55;;;;;;;4.43;1.70;;;16.70;99.90;;;;;;20844756;28;20038;-75
2021/05/09 23:02:56;;;;;;;2.63;1.77;;;16.60;99.90;;;;;;20828766;28;20515;-76
2021/05/09 23:12:57;;;;;;;3.93;2.07;;;17.10;99.90;;;;;;20827605;28;20548;-76
2021/05/09 23:22:57;;;;;;;7.28;2.17;;;16.30;99.90;;;;;;20827311;28;20053;-76
2021/05/09 23:32:58;;;;;;;4.53;1.60;;;15.80;99.90;;;;;;20827050;28;20109;-76
2021/05/09 23:42:59;;;;;;;3.80;1.52;;;16.20;99.90;;;;;;20826426;28;20108;-76
2021/05/09 23:53:00;;;;;;;8.33;1.43;;;16.50;99.90;;;;;;20841088;28;20033;-76
